logo

United by the hobby
of model aircraft flying

Promoting safe
radio model flying

Sharing the experience
of RC flying

Dedicated to the sport of model aviation

Meeting
Venue

Third Monday Each Month
Crown Point Civic Center
101 S East Street
Crown Point, IN 46307

Read More

email:
[javascript protected email address]

View our events calendar

2020

Weather Conditions

Elev 730 ft    41.19°N  87.16°W

12.0 °F
280°
13 m/h
Wind Variable Wind from West

Current Conditions

Pressure 30.28 in
Visibility 7 miles
Clouds Overcast
Dew Point 1.9 °F
Humidity 63 %
Rainfall 0.38 in
 
METAR KVPZ 191756Z AUTO 28011KT 7SM OVC022 M11/M17 A3028 RMK AO2 SLP270 60000 T11111167 11111 21156 51013

Forecast

INFORMATION PROVIDED BY THE INDIANA STATE FORECAST - NATIONAL WEATHER SERVICE
Sunrise & Sunset
January 19, 2020
4:3 AM

4:50 PM
High 31 | Low 18°F
January 20, 2020
4:3 AM

4:50 PM
High | Low °F
 

our gallery

View All